Tiempo atmosférico en la estación meteorológica de Cañaveral, Cáceres (373 m.)



Fecha
DESCASC
Temp. máxima en grados centígrados (hora)
DESCASC
Temp. mínima en grados centígrados (hora)
DESCASC
Temp. media en grados centígrados
DESCASC
Racha de viento máxima en m/sg (hora)
DESCASC
Velocidad máxima media en intervalos de 10 minutos(hora)
DESCASC
Precipitaciones diarias en mm
DESCASC
Precipitaciones de 00:00 a 06:00 en mm
DESCASC
Precipitaciones de 06:00 a 12:00 en mm
DESCASC
Precipitaciones de 12:00 a 18:00 en mm
DESCASC
Precipitaciones de 18:00 a 24:00 en mm
DESCASC
16-01-2020 15 (15:30) 9.2 (03:30) 12.1 11.67 (22:00) 6.39 (15:40) 1 0.4 0 0.2 0.4
15-01-2020 10.3 (17:10) 7.1 (03:50) 8.7 7.78 (18:10) 5.28 (18:10) 7.4 0 1 6.2 0.2
14-01-2020 10.6 (15:30) 3.3 (03:10) 7 5 (10:40) 3.06 (17:00) 0.4 0 0 0 0.4
13-01-2020 11.6 (15:50) 1.4 (06:40) 6.5 4.44 (08:40) 2.78 (08:40) 0 0 0 0 0
12-01-2020 13 (16:10) 0 (00:00) 6.5 4.17 (15:20) 2.5 (15:20) 0 0 0 0 0
11-01-2020 11.9 (16:40) 3.8 (00:00) 7.8 8.89 (12:00) 5.56 (12:20) 0 0 0 0 0
10-01-2020 12.6 (15:10) 5 (00:00) 8.8 14.17 (07:20) 10 (07:40) 0 0 0 0 0
09-01-2020 13.7 (16:40) 0.5 (00:00) 7.1 13.33 (23:40) 10.56 (23:50) 0 0 0 0 0
08-01-2020 11.9 (17:10) 0.2 (00:00) 6 4.72 (07:00) 3.33 (06:30) 0 0 0 0 0
07-01-2020 13.6 (15:50) 0.8 (00:00) 7.2 2.78 (04:10) 2.5 (04:10) 0 0 0 0 0
06-01-2020 13.5 (15:30) 0.8 (00:00) 7.2 4.17 (15:40) 2.5 (15:20) 0 0 0 0 0
05-01-2020 14 (16:00) 2.9 (00:00) 8.5 7.5 (00:10) 5.28 (00:10) 0 0 0 0 0
04-01-2020 12 (16:00) 2.1 (00:00) 7 10.28 (22:20) 7.5 (23:10) 0 0 0 0 0
03-01-2020 13.4 (16:30) 3.2 (00:00) 8.3 7.22 (16:50) 3.89 (16:20) 0 0 0 0 0
02-01-2020 10.8 (15:40) 0.7 (00:00) 5.8 4.44 (06:40) 3.33 (06:20) 0 0 0 0 0
01-01-2020 13.7 (15:40) 0.4 (00:00) 7 3.89 (09:40) 2.78 (09:40) 0 0 0 0 0
31-12-2019 13.6 (16:50) 2.8 (00:00) 8.2 4.72 (11:00) 3.06 (11:10) 0 0 0 0 0
30-12-2019 14.1 (14:40) 4.7 (00:00) 9.4 5 (14:50) 3.61 (15:10) 0 0 0 0 0
29-12-2019 15.5 (15:20) 6.6 (00:00) 11 6.11 (14:50) 4.17 (13:50) 0 0 0 0 0
28-12-2019 18.3 (16:30) 7.2 (00:00) 12.7 5.28 (20:40) 4.44 (20:40) 0 0 0 0 0
27-12-2019 15.6 (15:20) 8.1 (00:00) 11.9 7.22 (10:50) 5 (11:00) 0 0 0 0 0
26-12-2019 16 (16:00) 5.8 (00:00) 10.9 6.67 (22:20) 4.44 (23:00) 0 0 0 0 0
25-12-2019 16.8 (14:20) 9.3 (00:00) 13 6.39 (08:00) 4.17 (08:00) 0 0 0 0 0
24-12-2019 16.1 (16:20) 6.5 (00:00) 11.3 6.39 (23:59) 4.44 (23:59) 0 0 0 0 0
23-12-2019 13.1 (15:20) 7.1 (00:00) 10.1 5.28 (01:30) 3.89 (02:30) 0 0 0 0 0
22-12-2019 16.7 (16:50) 10.1 (00:00) 13.4 14.72 (15:10) 10.28 (15:20) 0 0 0 0 0
21-12-2019 18 (15:10) 12.1 (00:00) 15.1 24.17 (14:50) 15.83 (15:50) 4 2.8 0.6 0.6 0
20-12-2019 15.3 (17:30) 12.2 (00:00) 13.8 21.11 (02:00) 13.33 (02:10) 37.2 6.2 0.2 20 10.8

Gráficas

Temp. máximas Temp. mínimas Temp. medias Precipitaciones Rachas de viento máximas Velocidades máximas media en intervalos de 10 minutos

Datos horarios

Fecha y hora oficial Temperatura (ºC) Velocidad del viento (km/h) Dirección del viento Racha (km/h) Dirección de racha Precipitación (mm) Presión (hPa) Tendencia (hPa) Humedad (%)
2020-01-18 23:00:00 10 20 Oeste 33 Oeste 0 -- -- 84
2020-01-18 22:00:00 10.1 17 Oeste 26 Oeste 0 -- -- 87
2020-01-18 21:00:00 10.4 15 Oeste 34 Sudoeste 0 -- -- 87
2020-01-18 20:00:00 11.3 21 Oeste 33 Oeste 0 -- -- 91
2020-01-18 19:00:00 11.5 5 Sudoeste 10 Sudoeste 0 -- -- 95
2020-01-18 18:00:00 11.7 0 Calma 9 Sudoeste 0 -- -- 95
2020-01-18 17:00:00 11.4 0 Calma 9 Este 0 -- -- 96
2020-01-18 16:00:00 10.3 8 Nordeste 14 Nordeste 0 -- -- 96
2020-01-18 15:00:00 10 10 Este 21 Este 0.2 -- -- 96
2020-01-18 14:00:00 9.9 14 Este 24 Este 0 -- -- 97
2020-01-18 13:00:00 9.7 16 Este 23 Este 0.4 -- -- 96
2020-01-18 12:00:00 9.6 16 Este 23 Este 0.2 -- -- 97
2020-01-18 11:00:00 9.3 15 Este 26 Este 0.6 -- -- 97
2020-01-18 10:00:00 8.8 17 Este 32 Este 0.6 -- -- 97
2020-01-18 09:00:00 8.4 18 Este 33 Este 1.4 -- -- 97
2020-01-18 08:00:00 8.7 20 Este 32 Este 1 -- -- 96
2020-01-18 07:00:00 8.9 9 Este 19 Este 0.8 -- -- 95
2020-01-18 06:00:00 8.9 10 Nordeste 17 Nordeste 0.4 -- -- 93
2020-01-18 05:00:00 8.8 9 Nordeste 15 Nordeste 1 -- -- 93
2020-01-18 04:00:00 8.8 7 Nordeste 15 Nordeste 0 -- -- 90
2020-01-18 03:00:00 9 5 Nordeste 10 Nordeste 0 -- -- 83
2020-01-18 02:00:00 8.8 6 Nordeste 9 Nordeste 0 -- -- 82
2020-01-18 01:00:00 8.7 9 Nordeste 10 Nordeste 0 -- -- 82
2020-01-18 00:00:00 8.9 2 Sudeste 5 Este 0 -- -- 79
2020-01-17 23:00:00 8.5 6 Este 8 Este 0 -- -- 82
2020-01-17 22:00:00 9.4 2 Este 4 Nordeste 0 -- -- 74
2020-01-17 21:00:00 9.7 2 Nordeste 6 Noroeste 0 -- -- 74
2020-01-17 20:00:00 10.1 0 Calma 7 Nordeste 0 -- -- 73
2020-01-17 19:00:00 10.7 3 Sudoeste 7 Oeste 0 -- -- 71
2020-01-17 18:00:00 11.3 4 Oeste 11 Sudoeste 0 -- -- 69
2020-01-17 17:00:00 13.6 9 Sudoeste 20 Oeste 0 -- -- 61
2020-01-17 16:00:00 14.7 10 Oeste 22 Oeste 0 -- -- 62
2020-01-17 15:00:00 14.1 15 Oeste 22 Sudoeste 0 -- -- 67
2020-01-17 14:00:00 14.1 14 Oeste 22 Sudoeste 0 -- -- 70
2020-01-17 13:00:00 11.7 12 Oeste 20 Oeste 0 -- -- 82
2020-01-17 12:00:00 10.4 10 Sudoeste 15 Sudoeste 0 -- -- 95
2020-01-17 11:00:00 8.8 3 Sur 5 Sur 0 -- -- 98
2020-01-17 10:00:00 8.1 2 Sur 6 Sur 0 -- -- 98
2020-01-17 09:00:00 7.6 2 Sudeste 4 Este 0 -- -- 97
2020-01-17 08:00:00 7.4 4 Sudeste 6 Sudeste 0 -- -- 97
2020-01-17 07:00:00 7.7 0 Calma 4 Sur 0 -- -- 96
2020-01-17 06:00:00 7.8 0 Calma 7 Sur 0 -- -- 96
2020-01-17 05:00:00 8.1 5 Sudoeste 9 Sudoeste 0 -- -- 94
2020-01-17 04:00:00 8.6 5 Sudoeste 9 Sudoeste 0 -- -- 94
2020-01-17 03:00:00 9.3 4 Sudoeste 8 Oeste 0 -- -- 93
2020-01-17 02:00:00 9.4 4 Oeste 6 Oeste 0 -- -- 92
2020-01-17 01:00:00 9.7 4 Sur 10 Sur 0 -- -- 91
2020-01-17 00:00:00 9.9 3 Sur 18 Sudoeste 0 -- -- 88
2020-01-16 23:00:00 10.9 14 Sudoeste 35 Sudoeste 0 -- -- 85
2020-01-16 22:00:00 11.8 23 Sudoeste 42 Sudoeste 0.2 -- -- 74
2020-01-16 21:00:00 11.6 12 Sur 19 Sur 0.2 -- -- 73
2020-01-16 20:00:00 12.3 8 Sur 16 Sudoeste 0 -- -- 65
2020-01-16 19:00:00 12.4 6 Sudoeste 22 Sur 0 -- -- 64
2020-01-16 18:00:00 13.1 12 Sur 25 Sur 0 -- -- 63
2020-01-16 17:00:00 14.3 18 Sur 32 Sur 0.2 -- -- 61
2020-01-16 16:00:00 14.8 18 Sur 33 Sudoeste 0 -- -- 62
2020-01-16 15:00:00 14.4 20 Sudoeste 31 Sudoeste 0 -- -- 64
2020-01-16 14:00:00 14.3 21 Sur 32 Sur 0 -- -- 72
2020-01-16 13:00:00 13 19 Sur 28 Sur 0 -- -- 79
2020-01-16 12:00:00 11.9 12 Sudeste 21 Sudeste 0 -- -- 88
2020-01-16 11:00:00 10.8 7 Sudeste 15 Este 0 -- -- 91
2020-01-16 10:00:00 10.6 3 Este 18 Este 0 -- -- 94
2020-01-16 09:00:00 9.8 10 Este 15 Este 0 -- -- 95
2020-01-16 08:00:00 9.6 5 Este 12 Este 0 -- -- 95
2020-01-16 07:00:00 9.5 8 Este 12 Este 0 -- -- 95
2020-01-16 06:00:00 9.3 4 Este 13 Este 0 -- -- 95
2020-01-16 05:00:00 9.2 3 Este 17 Nordeste 0 -- -- 95
2020-01-16 04:00:00 9.2 10 Este 23 Este 0 -- -- 96
2020-01-16 03:00:00 9.4 10 Este 19 Este 0 -- -- 95
2020-01-16 02:00:00 9.5 5 Este 20 Este 0.4 -- -- 95
2020-01-16 01:00:00 9.6 12 Este 22 Este 0 -- -- 94
2020-01-16 00:00:00 9.6 11 Este 21 Este 0.2 -- -- 94
2020-01-15 23:00:00 9.7 13 Este 20 Este 0 -- -- 93
2020-01-15 22:00:00 9.7 5 Este 19 Este 0 -- -- 93
2020-01-15 21:00:00 9.5 6 Nordeste 20 Nordeste 0 -- -- 93
2020-01-15 20:00:00 9.4 14 Este 24 Este 0 -- -- 93
2020-01-15 19:00:00 9.2 16 Este 28 Este 0 -- -- 93
2020-01-15 18:00:00 9.9 17 Este 28 Este 0 -- -- 91
2020-01-15 17:00:00 10.2 12 Este 27 Este 0 -- -- 92
2020-01-15 16:00:00 9.8 15 Este 24 Este 0 -- -- 94
2020-01-15 15:00:00 9 12 Nordeste 21 Nordeste 0.2 -- -- 95
2020-01-15 14:00:00 8.7 10 Nordeste 18 Este 4 -- -- 95
2020-01-15 13:00:00 8.8 10 Este 15 Nordeste 2 -- -- 92
2020-01-15 12:00:00 9.1 7 Nordeste 9 Nordeste 0 -- -- 87
2020-01-15 11:00:00 9 0 Calma 11 Sudeste 0 -- -- 87
2020-01-15 10:00:00 8.3 6 Este 19 Este 0 -- -- 87
2020-01-15 09:00:00 7.7 8 Nordeste 12 Este 0.8 -- -- 91
2020-01-15 08:00:00 7.8 4 Este 12 Nordeste 0 -- -- 87
2020-01-15 07:00:00 7.7 5 Nordeste 14 Sudeste 0.2 -- -- 88
2020-01-15 06:00:00 8.4 8 Sudeste 18 Sur 0 -- -- 81
2020-01-15 05:00:00 7.7 4 Sur 9 Sur 0 -- -- 85
2020-01-15 04:00:00 7.1 3 Nordeste 9 Este 0 -- -- 88
2020-01-15 03:00:00 8.1 7 Sudeste 18 Sur 0 -- -- 85
2020-01-15 02:00:00 9.1 6 Sudeste 14 Sur 0 -- -- 82
2020-01-15 01:00:00 9.3 7 Sudeste 14 Sudeste 0 -- -- 84
2020-01-15 00:00:00 9.4 8 Sur 13 Sudeste 0 -- -- 85
2020-01-14 23:00:00 8.6 5 Este 9 Este 0 -- -- 89
2020-01-14 22:00:00 8.6 7 Este 14 Este 0 -- -- 89
2020-01-14 21:00:00 8.4 7 Este 17 Este 0 -- -- 90
2020-01-14 20:00:00 8.1 7 Este 12 Este 0 -- -- 91
2020-01-14 19:00:00 8.9 4 Sudeste 17 Sur 0.4 -- -- 88
2020-01-14 18:00:00 10.1 6 Sur 17 Sudeste 0 -- -- 73
2020-01-14 17:00:00 10.5 11 Sur 16 Sur 0 -- -- 70
2020-01-14 16:00:00 10.4 6 Sur 13 Este 0 -- -- 72
2020-01-14 15:00:00 10 7 Sudeste 15 Este 0 -- -- 72
2020-01-14 14:00:00 9.4 6 Este 13 Sudeste 0 -- -- 74
2020-01-14 13:00:00 7.3 6 Nordeste 14 Este 0 -- -- 79
2020-01-14 12:00:00 6.9 6 Este 12 Este 0 -- -- 80
2020-01-14 11:00:00 6.5 4 Sudeste 18 Nordeste 0 -- -- 80
2020-01-14 10:00:00 5.7 10 Nordeste 16 Nordeste 0 -- -- 82
2020-01-14 09:00:00 5.1 5 Nordeste 9 Nordeste 0 -- -- 83
2020-01-14 08:00:00 3.9 2 Noroeste 8 Nordeste 0 -- -- 88
2020-01-14 07:00:00 4.8 8 Nordeste 13 Nordeste 0 -- -- 84
2020-01-14 06:00:00 5.7 5 Nordeste 13 Nordeste 0 -- -- 81
2020-01-14 05:00:00 5.3 9 Nordeste 14 Nordeste 0 -- -- 81
2020-01-14 04:00:00 4.2 8 Nordeste 10 Nordeste 0 -- -- 84
2020-01-14 03:00:00 3.4 0 Calma 5 Nordeste 0 -- -- 86
2020-01-14 02:00:00 4.7 4 Nordeste 8 Nordeste 0 -- -- 81
2020-01-14 01:00:00 4.2 5 Nordeste 6 Este 0 -- -- 83
2020-01-14 00:00:00 4.5 0 Calma 4 Norte 0 -- -- 80
2020-01-13 23:00:00 4.7 0 Calma 5 Nordeste 0 -- -- 78
2020-01-13 22:00:00 5.3 2 Norte 8 Sudeste 0 -- -- 80
2020-01-13 21:00:00 5 3 Este 4 Este 0 -- -- 80
2020-01-13 20:00:00 6.1 2 Este 8 Este 0 -- -- 78
2020-01-13 19:00:00 8.4 0 Calma 4 Nordeste 0 -- -- 69
2020-01-13 18:00:00 11.4 2 Sudoeste 8 Sudeste 0 -- -- 60
2020-01-13 17:00:00 11.1 4 Sudoeste 14 Sudeste 0 -- -- 60
2020-01-13 16:00:00 11.4 6 Sur 14 Sudoeste 0 -- -- 58
2020-01-13 15:00:00 11 6 Sur 11 Sur 0 -- -- 60
2020-01-13 14:00:00 10 4 Sudeste 11 Este 0 -- -- 62
2020-01-13 13:00:00 9 6 Sudeste 12 Sudeste 0 -- -- 69
2020-01-13 12:00:00 7 5 Nordeste 15 Este 0 -- -- 74
2020-01-13 11:00:00 6.1 9 Este 14 Este 0 -- -- 76
2020-01-13 10:00:00 4.5 5 Nordeste 13 Nordeste 0 -- -- 80
2020-01-13 09:00:00 3.5 8 Nordeste 16 Este 0 -- -- 83
2020-01-13 08:00:00 3.2 6 Nordeste 10 Nordeste 0 -- -- 85
2020-01-13 07:00:00 1.9 2 Este 6 Nordeste 0 -- -- 87
2020-01-13 06:00:00 5.4 7 Nordeste 12 Nordeste 0 -- -- 75
2020-01-13 05:00:00 4.9 7 Nordeste 12 Nordeste 0 -- -- 77
2020-01-13 04:00:00 5.3 10 Nordeste 13 Nordeste 0 -- -- 76
2020-01-13 03:00:00 4.9 9 Nordeste 11 Nordeste 0 -- -- 75
2020-01-13 02:00:00 6.1 7 Nordeste 13 Nordeste 0 -- -- 72
2020-01-13 01:00:00 6.1 7 Nordeste 13 Nordeste 0 -- -- 72
2020-01-13 00:00:00 6.2 9 Nordeste 11 Nordeste 0 -- -- 71
2020-01-12 23:00:00 6 4 Nordeste 5 Este 0 -- -- 70
2020-01-12 22:00:00 7.1 0 Calma 4 Oeste 0 -- -- 65
2020-01-12 21:00:00 7.2 3 Oeste 4 Noroeste 0 -- -- 64
2020-01-12 20:00:00 7.7 4 Norte 8 Norte 0 -- -- 63
2020-01-12 19:00:00 8 3 Norte 6 Norte 0 -- -- 66
2020-01-12 18:00:00 12.2 2 Sudoeste 11 Sudoeste 0 -- -- 52
2020-01-12 17:00:00 12.7 6 Sudoeste 10 Sudoeste 0 -- -- 52
2020-01-12 16:00:00 12.8 6 Sudoeste 15 Sudoeste 0 -- -- 51
2020-01-12 15:00:00 12.1 8 Sudoeste 13 Sudoeste 0 -- -- 50
2020-01-12 14:00:00 10.6 6 Sur 13 Sur 0 -- -- 66
2020-01-12 13:00:00 9.3 6 Sudoeste 10 Sudoeste 0 -- -- 70
2020-01-12 12:00:00 7.3 5 Oeste 8 Sudoeste 0 -- -- 76
2020-01-12 11:00:00 5.2 3 Sudoeste 4 Sudoeste 0 -- -- 83
2020-01-12 10:00:00 2.1 3 Sudeste 5 Este 0 -- -- 91
2020-01-12 09:00:00 0.4 0 Calma 5 Oeste 0 -- -- 94
2020-01-12 08:00:00 0.9 4 Oeste 5 Oeste 0 -- -- 91
2020-01-12 07:00:00 1.9 0 Calma 2 Noroeste 0 -- -- 94
2020-01-12 06:00:00 1.6 0 Calma 2 Sudoeste 0 -- -- 93
2020-01-12 05:00:00 1.9 0 Calma 3 Nordeste 0 -- -- 91
2020-01-12 04:00:00 2.3 0 Calma 4 Oeste 0 -- -- 86
2020-01-12 03:00:00 3.6 2 Nordeste 5 Nordeste 0 -- -- 78
2020-01-12 02:00:00 4 0 Calma 5 Noroeste 0 -- -- 74
2020-01-12 01:00:00 5.5 0 Calma 4 Nordeste 0 -- -- 68
2020-01-12 00:00:00 6.5 2 Nordeste 8 Nordeste 0 -- -- 65
2020-01-11 23:00:00 6 2 Norte 6 Sudoeste 0 -- -- 66
2020-01-11 22:00:00 5.2 3 Oeste 14 Norte 0 -- -- 69
2020-01-11 21:00:00 7.9 9 Norte 15 Norte 0 -- -- 60
2020-01-11 20:00:00 7 6 Norte 13 Norte 0 -- -- 60
2020-01-11 19:00:00 8.1 10 Norte 12 Norte 0 -- -- 56
2020-01-11 18:00:00 10.7 4 Norte 14 Este 0 -- -- 54
2020-01-11 17:00:00 11.7 11 Este 17 Este 0 -- -- 49
2020-01-11 16:00:00 11.5 12 Este 26 Este 0 -- -- 48
2020-01-11 15:00:00 11.1 18 Este 30 Este 0 -- -- 48
2020-01-11 14:00:00 10.8 14 Este 24 Este 0 -- -- 51
2020-01-11 13:00:00 10.3 15 Este 32 Este 0 -- -- 54
2020-01-11 12:00:00 9.5 18 Este 32 Nordeste 0 -- -- 60
2020-01-11 11:00:00 9.1 6 Nordeste 20 Nordeste 0 -- -- 61
2020-01-11 10:00:00 7.5 8 Nordeste 13 Nordeste 0 -- -- 63
2020-01-11 09:00:00 5.9 8 Nordeste 12 Nordeste 0 -- -- 66
2020-01-11 08:00:00 4.6 7 Nordeste 12 Nordeste 0 -- -- 71
2020-01-11 07:00:00 6.8 8 Nordeste 13 Nordeste 0 -- -- 61
2020-01-11 06:00:00 5.9 6 Nordeste 12 Norte 0 -- -- 65
2020-01-11 05:00:00 5.9 10 Norte 15 Norte 0 -- -- 64
2020-01-11 04:00:00 6.3 4 Norte 24 Norte 0 -- -- 65
2020-01-11 03:00:00 7.3 13 Norte 22 Norte 0 -- -- 62
2020-01-11 02:00:00 7.7 15 Norte 25 Norte 0 -- -- 60
2020-01-11 01:00:00 7.4 14 Norte 21 Norte 0 -- -- 61
2020-01-11 00:00:00 7.7 15 Norte 22 Norte 0 -- -- 60
2020-01-10 23:00:00 8.4 15 Norte 26 Nordeste 0 -- -- 56
2020-01-10 22:00:00 8.5 19 Norte 34 Norte 0 -- -- 56
2020-01-10 21:00:00 8.4 22 Norte 34 Norte 0 -- -- 60
2020-01-10 20:00:00 8.9 21 Norte 33 Norte 0 -- -- 59
2020-01-10 19:00:00 9.2 15 Norte 23 Norte 0 -- -- 59
2020-01-10 18:00:00 10.7 14 Norte 25 Norte 0 -- -- 55
2020-01-10 17:00:00 12.4 12 Norte 21 Norte 0 -- -- 50
2020-01-10 16:00:00 12.6 12 Norte 22 Norte 0 -- -- 50
2020-01-10 15:00:00 12.4 6 Este 23 Este 0 -- -- 50
2020-01-10 14:00:00 12 19 Este 29 Sudeste 0 -- -- 50
2020-01-10 13:00:00 11.3 14 Norte 33 Norte 0 -- -- 55
2020-01-10 12:00:00 9.6 19 Norte 35 Norte 0 -- -- 59
2020-01-10 11:00:00 8.6 21 Norte 36 Norte 0 -- -- 59
2020-01-10 10:00:00 7 26 Norte 46 Norte 0 -- -- 66
2020-01-10 09:00:00 6.5 33 Norte 48 Norte 0 -- -- 67
2020-01-10 08:00:00 6.6 36 Norte 51 Norte 0 -- -- 65
2020-01-10 07:00:00 6 29 Norte 42 Norte 0 -- -- 68
2020-01-10 06:00:00 5.4 5 Sudeste 29 Norte 0 -- -- 70
2020-01-10 05:00:00 6.3 11 Norte 32 Norte 0 -- -- 68
2020-01-10 04:00:00 7.5 26 Norte 45 Norte 0 -- -- 67
2020-01-10 03:00:00 7.7 19 Norte 32 Norte 0 -- -- 70
2020-01-10 02:00:00 8.4 12 Norte 33 Norte 0 -- -- 72
2020-01-10 01:00:00 9.5 21 Noroeste 39 Norte 0 -- -- 67
2020-01-10 00:00:00 10 36 Norte 48 Norte 0 -- -- 68
2020-01-09 23:00:00 10.9 26 Norte 37 Norte 0 -- -- 75
2020-01-09 22:00:00 9 4 Este 10 Nordeste 0 -- -- 82
2020-01-09 21:00:00 9.4 3 Sudoeste 8 Sur 0 -- -- 80
2020-01-09 20:00:00 10 3 Sudoeste 13 Oeste 0 -- -- 77
2020-01-09 19:00:00 11.1 11 Oeste 16 Oeste 0 -- -- 73
2020-01-09 18:00:00 11.5 7 Sudoeste 18 Sudoeste 0 -- -- 70
2020-01-09 17:00:00 13.4 11 Sudoeste 18 Sudoeste 0 -- -- 63
2020-01-09 16:00:00 13.3 9 Sudoeste 15 Sudoeste 0 -- -- 67
2020-01-09 15:00:00 13.1 9 Sudoeste 14 Sudoeste 0 -- -- 72
2020-01-09 14:00:00 12.4 7 Oeste 12 Sudoeste 0 -- -- 71
2020-01-09 13:00:00 10.7 7 Oeste 11 Oeste 0 -- -- 80
2020-01-09 12:00:00 9.1 6 Sudoeste 14 Este 0 -- -- 81
2020-01-09 11:00:00 5.4 0 Calma 5 Oeste 0 -- -- 95
2020-01-09 10:00:00 2.4 3 Oeste 6 Oeste 0 -- -- 94
2020-01-09 09:00:00 1.6 0 Calma 4 Oeste 0 -- -- 97
2020-01-09 08:00:00 0.5 5 Oeste 10 Oeste 0 -- -- 94
2020-01-09 07:00:00 5.3 5 Este 10 Nordeste 0 -- -- 84
2020-01-09 06:00:00 3.1 4 Nordeste 8 Este 0 -- -- 96
2020-01-09 05:00:00 3.2 2 Oeste 7 Nordeste 0 -- -- 93
2020-01-09 04:00:00 5.3 9 Nordeste 13 Nordeste 0 -- -- 90
2020-01-09 03:00:00 4.1 3 Nordeste 5 Nordeste 0 -- -- 95
2020-01-09 02:00:00 4.5 0 Calma 5 Sudoeste 0 -- -- 94
2020-01-09 01:00:00 5.5 3 Sudoeste 5 Oeste 0 -- -- 94
2020-01-09 00:00:00 6 4 Oeste 11 Nordeste 0 -- -- 86
2020-01-08 23:00:00 6.7 4 Noroeste 5 Noroeste 0 -- -- 83
2020-01-08 22:00:00 7.3 0 Calma 5 Oeste 0 -- -- 89
2020-01-08 21:00:00 7.1 0 Calma 4 Norte 0 -- -- 81
2020-01-08 20:00:00 8.7 4 Nordeste 5 Norte 0 -- -- 87
2020-01-08 19:00:00 8.4 4 Nordeste 5 Nordeste 0 -- -- 88
2020-01-08 18:00:00 10.4 0 Calma 5 Sudoeste 0 -- -- 80
2020-01-08 17:00:00 11.8 4 Sudoeste 7 Sudoeste 0 -- -- 76
2020-01-08 16:00:00 10.8 5 Oeste 10 Sudoeste 0 -- -- 79
2020-01-08 15:00:00 9.8 3 Sudoeste 9 Sudoeste 0 -- -- 81
2020-01-08 14:00:00 6.9 5 Sudoeste 9 Oeste 0 -- -- 93
2020-01-08 13:00:00 5.1 2 Sudoeste 5 Sudoeste 0 -- -- 95
2020-01-08 12:00:00 3.7 0 Calma 6 Oeste 0 -- -- 95
2020-01-08 11:00:00 3.2 0 Calma 2 Sur 0 -- -- 96
2020-01-08 10:00:00 0.5 0 Calma 2 Sur 0 -- -- 95
2020-01-08 09:00:00 0.7 0 Calma 5 Este 0 -- -- 94
2020-01-08 08:00:00 3 2 Este 15 Este 0 -- -- 87
2020-01-08 07:00:00 4.2 11 Nordeste 17 Nordeste 0 -- -- 93
2020-01-08 06:00:00 4.2 5 Nordeste 7 Nordeste 0 -- -- 96
2020-01-08 05:00:00 4 0 Calma 5 Nordeste 0 -- -- 94
2020-01-08 04:00:00 4 2 Este 6 Nordeste 0 -- -- 95
2020-01-08 03:00:00 4.5 2 Nordeste 3 Nordeste 0 -- -- 93
2020-01-08 02:00:00 4.6 2 Oeste 4 Noroeste 0 -- -- 91
2020-01-08 01:00:00 6.3 0 Calma 4 Este 0 -- -- 86
2020-01-08 00:00:00 7.1 4 Nordeste 5 Nordeste 0 -- -- 86
2020-01-07 23:00:00 7 3 Nordeste 4 Nordeste 0 -- -- 83
2020-01-07 22:00:00 7.8 2 Nordeste 5 Este 0 -- -- 80
2020-01-07 21:00:00 7.6 3 Este 7 Nordeste 0 -- -- 76
2020-01-07 20:00:00 8.8 0 Calma 4 Norte 0 -- -- 77
2020-01-07 19:00:00 9.5 3 Nordeste 4 Nordeste 0 -- -- 79
2020-01-07 18:00:00 12 2 Oeste 8 Sudoeste 0 -- -- 72
2020-01-07 17:00:00 13.1 6 Oeste 9 Oeste 0 -- -- 71
2020-01-07 16:00:00 13.6 6 Sudoeste 10 Oeste 0 -- -- 68
2020-01-07 15:00:00 13 5 Sudoeste 9 Sur 0 -- -- 71
2020-01-07 14:00:00 11.5 4 Sur 9 Sudoeste 0 -- -- 73
2020-01-07 13:00:00 9.1 4 Sur 9 Sur 0 -- -- 82
2020-01-07 12:00:00 7.1 0 Calma 5 Oeste 0 -- -- 89
2020-01-07 11:00:00 3.9 3 Oeste 5 Oeste 0 -- -- 91
2020-01-07 10:00:00 2.9 0 Calma 4 Noroeste 0 -- -- 97
2020-01-07 09:00:00 1 0 Calma 3 Oeste 0 -- -- 94
2020-01-07 08:00:00 3.2 3 Nordeste 5 Nordeste 0 -- -- 91
2020-01-07 07:00:00 2.9 0 Calma 3 Sudoeste 0 -- -- 94
2020-01-07 06:00:00 3.4 0 Calma 3 Oeste 0 -- -- 94
2020-01-07 05:00:00 3.8 4 Noroeste 10 Nordeste 0 -- -- 91
2020-01-07 04:00:00 4.1 8 Nordeste 9 Nordeste 0 -- -- 90
2020-01-07 03:00:00 4.7 0 Calma 3 Nordeste 0 -- -- 87
2020-01-07 02:00:00 5.5 0 Calma 2 Oeste 0 -- -- 85
2020-01-07 01:00:00 6.2 0 Calma 6 Nordeste 0 -- -- 85
2020-01-07 00:00:00 7.2 3 Nordeste 8 Nordeste 0 -- -- 79
2020-01-06 23:00:00 7.1 6 Nordeste 9 Nordeste 0 -- -- 77
2020-01-06 22:00:00 7.8 0 Calma 3 Noroeste 0 -- -- 83
2020-01-06 21:00:00 7.8 2 Noroeste 4 Norte 0 -- -- 79
2020-01-06 20:00:00 8.6 6 Norte 13 Norte 0 -- -- 79
2020-01-06 19:00:00 9.6 2 Norte 4 Oeste 0 -- -- 77
2020-01-06 18:00:00 11.8 4 Oeste 8 Oeste 0 -- -- 70
2020-01-06 17:00:00 13 2 Norte 10 Sudoeste 0 -- -- 67
2020-01-06 16:00:00 13.3 8 Sudoeste 15 Oeste 0 -- -- 67
2020-01-06 15:00:00 12.9 4 Sur 14 Sudeste 0 -- -- 61
2020-01-06 14:00:00 11.7 5 Sudeste 9 Este 0 -- -- 70
2020-01-06 13:00:00 9.5 3 Sudeste 7 Sur 0 -- -- 77
2020-01-06 12:00:00 6.6 3 Sudoeste 11 Oeste 0 -- -- 87
2020-01-06 11:00:00 5.5 8 Sudoeste 14 Oeste 0 -- -- 84
2020-01-06 10:00:00 3.2 0 Calma 4 Noroeste 0 -- -- 96